weather.gov     
National Weather Service

Terminal Aerodrome Forecast
NWS Homepage
This page is being discontinued on March 12, 2014.
The same data is available at this site. Please update your bookmarks.
Thank you, and we apologize for the inconvenience.
Please send an email to SR-SRH.Webmaster@noaa.gov with any concerns.


Current Version
Previous Version:    01  02  03  04  05  06  07  08  09  10  11  12  13  14  15  16  17  18  19  20  21  22  23  24  25  26  27  
[Printable]
055
FTUS44 KLIX 191500 AAA
TAFGPT
TAF AMD
KGPT 191554Z 1916/2012 06008KT 6SM -SHRA BR SCT007 OVC040
      TEMPO 1916/1918 4SM SHRA BKN007
     FM191900 07009KT 5SM SHRA SCT012 OVC050
     FM192100 07008KT 3SM SHRA SCT015 OVC040
     FM200000 07010KT 3SM SHRA SCT015 OVC040
     FM200900 03007KT P6SM OVC010=


U.S. Dept. of Commerce
NOAA National Weather Service
1325 East West Highway
Silver Spring, MD 20910
E-mail: w-nws.webmaster@noaa.gov
Page last modified: May 16, 2007
NATIONAL WEATHER SERVICE: for Safety, for Work, for Fun - FOR LIFE